Berwick, Illinois
Current Conditions -  °F | °C
As of 2:55 PM on Tuesday 21 Oct 2014 (Local Time) from KGBG Reporting Station
Clear Clear  
Wind Chill: 59°   Ceiling: Unl
Heat Index: 59°   Visibility: 10mi
Dew Point: 41°   Wind: 7mph
Humidity: 51%   Direction: 10°N
Pressure: 30.16"   Gusts: NA
Location:  40.8°N, 90.54°W
Report Text: KGBG 211955Z AUTO 01006KT 350V070 10SM CLR 15/05 A3016 RMK AO2 T01520051
Loading
Personal Weather Stations






























Interactive Weather Map
Tropical Storm Tracking
New forecast layout! Learn more

10-Day Weather Forecast

Advertisements
Track Severe Weather on mobile